sensor_id;sensor_type;location;lat;lon;timestamp;P1;durP1;ratioP1;P2;durP2;ratioP2
9976;SDS011;5029;47.378;11.776;2022-07-15T00:01:23;5.17;;;2.70;;
9976;SDS011;5029;47.378;11.776;2022-07-15T00:06:28;2.80;;;2.20;;
9976;SDS011;5029;47.378;11.776;2022-07-15T00:11:31;5.57;;;2.70;;
9976;SDS011;5029;47.378;11.776;2022-07-15T00:16:35;4.47;;;2.50;;
9976;SDS011;5029;47.378;11.776;2022-07-15T00:21:40;3.77;;;3.00;;
9976;SDS011;5029;47.378;11.776;2022-07-15T00:26:44;4.87;;;2.67;;
9976;SDS011;5029;47.378;11.776;2022-07-15T00:31:47;4.43;;;2.70;;
9976;SDS011;5029;47.378;11.776;2022-07-15T00:36:52;3.57;;;2.80;;
9976;SDS011;5029;47.378;11.776;2022-07-15T00:41:55;3.73;;;3.10;;
9976;SDS011;5029;47.378;11.776;2022-07-15T00:46:59;9.53;;;3.10;;
9976;SDS011;5029;47.378;11.776;2022-07-15T00:52:04;3.53;;;3.00;;
9976;SDS011;5029;47.378;11.776;2022-07-15T00:57:08;4.87;;;3.13;;
9976;SDS011;5029;47.378;11.776;2022-07-15T01:02:12;3.40;;;3.10;;
9976;SDS011;5029;47.378;11.776;2022-07-15T01:07:18;8.77;;;4.07;;
9976;SDS011;5029;47.378;11.776;2022-07-15T01:12:22;7.10;;;3.30;;
9976;SDS011;5029;47.378;11.776;2022-07-15T01:17:26;5.13;;;3.10;;
9976;SDS011;5029;47.378;11.776;2022-07-15T01:22:31;3.60;;;3.30;;
9976;SDS011;5029;47.378;11.776;2022-07-15T01:27:35;4.73;;;3.40;;
9976;SDS011;5029;47.378;11.776;2022-07-15T01:32:39;4.87;;;2.97;;
9976;SDS011;5029;47.378;11.776;2022-07-15T01:37:44;3.63;;;3.10;;
9976;SDS011;5029;47.378;11.776;2022-07-15T01:42:47;7.60;;;3.60;;
9976;SDS011;5029;47.378;11.776;2022-07-15T01:47:51;4.30;;;3.10;;
9976;SDS011;5029;47.378;11.776;2022-07-15T01:52:56;6.83;;;3.27;;
9976;SDS011;5029;47.378;11.776;2022-07-15T01:57:59;4.33;;;3.60;;
9976;SDS011;5029;47.378;11.776;2022-07-15T02:03:03;6.03;;;3.07;;
9976;SDS011;5029;47.378;11.776;2022-07-15T02:08:07;6.47;;;3.30;;
9976;SDS011;5029;47.378;11.776;2022-07-15T02:13:16;6.90;;;3.17;;
9976;SDS011;5029;47.378;11.776;2022-07-15T02:18:19;3.60;;;3.30;;
9976;SDS011;5029;47.378;11.776;2022-07-15T02:23:25;5.13;;;3.00;;
9976;SDS011;5029;47.378;11.776;2022-07-15T02:28:28;8.13;;;3.23;;
9976;SDS011;5029;47.378;11.776;2022-07-15T02:33:33;4.80;;;2.73;;
9976;SDS011;5029;47.378;11.776;2022-07-15T02:38:38;3.47;;;3.17;;
9976;SDS011;5029;47.378;11.776;2022-07-15T02:43:42;3.20;;;2.80;;
9976;SDS011;5029;47.378;11.776;2022-07-15T02:48:46;5.47;;;3.10;;
9976;SDS011;5029;47.378;11.776;2022-07-15T02:53:51;5.47;;;3.37;;
9976;SDS011;5029;47.378;11.776;2022-07-15T02:58:54;4.30;;;2.87;;
9976;SDS011;5029;47.378;11.776;2022-07-15T03:03:58;4.07;;;2.77;;
9976;SDS011;5029;47.378;11.776;2022-07-15T03:09:03;5.60;;;2.93;;
9976;SDS011;5029;47.378;11.776;2022-07-15T03:14:06;3.87;;;3.00;;
9976;SDS011;5029;47.378;11.776;2022-07-15T03:19:11;3.97;;;2.90;;
9976;SDS011;5029;47.378;11.776;2022-07-15T03:24:16;3.87;;;3.10;;
9976;SDS011;5029;47.378;11.776;2022-07-15T03:29:19;3.43;;;2.63;;
9976;SDS011;5029;47.378;11.776;2022-07-15T03:34:23;5.50;;;3.57;;
9976;SDS011;5029;47.378;11.776;2022-07-15T03:39:28;4.00;;;3.10;;
9976;SDS011;5029;47.378;11.776;2022-07-15T03:44:32;8.30;;;3.07;;
9976;SDS011;5029;47.378;11.776;2022-07-15T03:49:36;3.83;;;3.23;;
9976;SDS011;5029;47.378;11.776;2022-07-15T03:54:40;4.60;;;3.57;;
9976;SDS011;5029;47.378;11.776;2022-07-15T03:59:44;4.93;;;3.63;;
9976;SDS011;5029;47.378;11.776;2022-07-15T04:04:47;5.73;;;3.53;;
9976;SDS011;5029;47.378;11.776;2022-07-15T04:09:52;5.13;;;3.60;;
9976;SDS011;5029;47.378;11.776;2022-07-15T04:14:56;3.53;;;3.23;;
9976;SDS011;5029;47.378;11.776;2022-07-15T04:19:59;4.97;;;3.70;;
9976;SDS011;5029;47.378;11.776;2022-07-15T04:25:05;5.53;;;4.13;;
9976;SDS011;5029;47.378;11.776;2022-07-15T04:30:10;5.90;;;3.90;;
9976;SDS011;5029;47.378;11.776;2022-07-15T04:35:14;3.80;;;3.40;;
9976;SDS011;5029;47.378;11.776;2022-07-15T04:40:19;4.27;;;3.87;;
9976;SDS011;5029;47.378;11.776;2022-07-15T04:45:23;5.30;;;4.37;;
9976;SDS011;5029;47.378;11.776;2022-07-15T04:50:27;5.77;;;4.93;;
9976;SDS011;5029;47.378;11.776;2022-07-15T04:55:52;4.83;;;4.37;;
9976;SDS011;5029;47.378;11.776;2022-07-15T05:00:55;4.60;;;4.20;;
9976;SDS011;5029;47.378;11.776;2022-07-15T05:05:59;5.27;;;4.73;;
9976;SDS011;5029;47.378;11.776;2022-07-15T05:11:04;6.27;;;5.10;;
9976;SDS011;5029;47.378;11.776;2022-07-15T05:16:07;8.20;;;5.63;;
9976;SDS011;5029;47.378;11.776;2022-07-15T05:21:11;6.10;;;5.20;;
9976;SDS011;5029;47.378;11.776;2022-07-15T05:26:21;8.37;;;5.97;;
9976;SDS011;5029;47.378;11.776;2022-07-15T05:31:25;6.43;;;5.63;;
9976;SDS011;5029;47.378;11.776;2022-07-15T05:36:28;6.70;;;6.13;;
9976;SDS011;5029;47.378;11.776;2022-07-15T05:41:33;6.43;;;5.53;;
9976;SDS011;5029;47.378;11.776;2022-07-15T05:46:37;5.60;;;5.10;;
9976;SDS011;5029;47.378;11.776;2022-07-15T05:51:40;6.53;;;5.93;;
9976;SDS011;5029;47.378;11.776;2022-07-15T05:56:46;6.33;;;5.50;;
9976;SDS011;5029;47.378;11.776;2022-07-15T06:01:50;6.90;;;5.70;;
9976;SDS011;5029;47.378;11.776;2022-07-15T06:06:53;6.57;;;5.87;;
9976;SDS011;5029;47.378;11.776;2022-07-15T06:11:59;6.07;;;5.47;;
9976;SDS011;5029;47.378;11.776;2022-07-15T06:17:02;7.40;;;5.93;;
9976;SDS011;5029;47.378;11.776;2022-07-15T06:22:06;8.90;;;6.27;;
9976;SDS011;5029;47.378;11.776;2022-07-15T06:27:10;7.60;;;6.90;;
9976;SDS011;5029;47.378;11.776;2022-07-15T06:32:14;11.07;;;7.47;;
9976;SDS011;5029;47.378;11.776;2022-07-15T06:37:17;8.10;;;7.33;;
9976;SDS011;5029;47.378;11.776;2022-07-15T06:42:22;8.17;;;6.87;;
9976;SDS011;5029;47.378;11.776;2022-07-15T06:47:26;8.13;;;7.43;;
9976;SDS011;5029;47.378;11.776;2022-07-15T06:52:30;9.53;;;8.63;;
9976;SDS011;5029;47.378;11.776;2022-07-15T06:57:35;8.53;;;7.77;;
9976;SDS011;5029;47.378;11.776;2022-07-15T07:02:38;8.97;;;8.20;;
9976;SDS011;5029;47.378;11.776;2022-07-15T07:07:48;8.80;;;8.00;;
9976;SDS011;5029;47.378;11.776;2022-07-15T07:12:53;8.47;;;7.83;;
9976;SDS011;5029;47.378;11.776;2022-07-15T07:17:57;9.40;;;8.40;;
9976;SDS011;5029;47.378;11.776;2022-07-15T07:23:00;10.87;;;8.37;;
9976;SDS011;5029;47.378;11.776;2022-07-15T07:28:05;10.37;;;9.20;;
9976;SDS011;5029;47.378;11.776;2022-07-15T07:33:09;9.83;;;8.90;;
9976;SDS011;5029;47.378;11.776;2022-07-15T07:38:13;11.13;;;9.27;;
9976;SDS011;5029;47.378;11.776;2022-07-15T07:43:18;9.47;;;8.53;;
9976;SDS011;5029;47.378;11.776;2022-07-15T07:48:21;8.63;;;7.83;;
9976;SDS011;5029;47.378;11.776;2022-07-15T07:53:25;8.27;;;7.47;;
9976;SDS011;5029;47.378;11.776;2022-07-15T07:58:30;8.10;;;7.40;;
9976;SDS011;5029;47.378;11.776;2022-07-15T08:03:33;8.37;;;7.60;;
9976;SDS011;5029;47.378;11.776;2022-07-15T08:08:36;8.20;;;7.37;;
9976;SDS011;5029;47.378;11.776;2022-07-15T08:13:41;8.70;;;7.90;;
9976;SDS011;5029;47.378;11.776;2022-07-15T08:18:45;8.10;;;7.30;;
9976;SDS011;5029;47.378;11.776;2022-07-15T08:23:48;8.60;;;7.83;;
9976;SDS011;5029;47.378;11.776;2022-07-15T08:28:53;7.40;;;6.60;;
9976;SDS011;5029;47.378;11.776;2022-07-15T08:34:06;8.10;;;7.27;;
9976;SDS011;5029;47.378;11.776;2022-07-15T08:39:11;10.03;;;7.53;;
9976;SDS011;5029;47.378;11.776;2022-07-15T08:44:16;7.73;;;6.93;;
9976;SDS011;5029;47.378;11.776;2022-07-15T08:49:19;8.30;;;7.50;;
9976;SDS011;5029;47.378;11.776;2022-07-15T08:54:26;6.73;;;6.13;;
9976;SDS011;5029;47.378;11.776;2022-07-15T08:59:32;8.00;;;7.10;;
9976;SDS011;5029;47.378;11.776;2022-07-15T09:04:36;8.17;;;7.37;;
9976;SDS011;5029;47.378;11.776;2022-07-15T09:10:18;8.50;;;7.60;;
9976;SDS011;5029;47.378;11.776;2022-07-15T09:15:30;8.27;;;7.57;;
9976;SDS011;5029;47.378;11.776;2022-07-15T09:20:34;7.33;;;6.63;;
9976;SDS011;5029;47.378;11.776;2022-07-15T09:25:38;7.33;;;6.63;;
9976;SDS011;5029;47.378;11.776;2022-07-15T09:30:44;6.50;;;5.90;;
9976;SDS011;5029;47.378;11.776;2022-07-15T09:36:11;6.07;;;5.47;;
9976;SDS011;5029;47.378;11.776;2022-07-15T09:41:28;6.93;;;6.20;;
9976;SDS011;5029;47.378;11.776;2022-07-15T09:46:41;7.23;;;6.53;;
9976;SDS011;5029;47.378;11.776;2022-07-15T09:51:47;5.83;;;5.33;;
9976;SDS011;5029;47.378;11.776;2022-07-15T09:56:54;5.37;;;4.87;;
9976;SDS011;5029;47.378;11.776;2022-07-15T10:02:00;5.33;;;4.83;;
9976;SDS011;5029;47.378;11.776;2022-07-15T10:07:04;6.87;;;4.53;;
9976;SDS011;5029;47.378;11.776;2022-07-15T10:12:28;6.53;;;5.93;;
9976;SDS011;5029;47.378;11.776;2022-07-15T10:17:50;5.97;;;5.40;;
9976;SDS011;5029;47.378;11.776;2022-07-15T10:23:06;5.33;;;4.83;;
9976;SDS011;5029;47.378;11.776;2022-07-15T10:28:24;4.40;;;4.00;;
9976;SDS011;5029;47.378;11.776;2022-07-15T10:33:41;5.30;;;4.80;;
9976;SDS011;5029;47.378;11.776;2022-07-15T10:38:44;5.40;;;4.90;;
9976;SDS011;5029;47.378;11.776;2022-07-15T10:44:09;3.60;;;3.30;;
9976;SDS011;5029;47.378;11.776;2022-07-15T10:49:30;4.53;;;4.13;;
9976;SDS011;5029;47.378;11.776;2022-07-15T10:54:37;4.70;;;4.27;;
9976;SDS011;5029;47.378;11.776;2022-07-15T10:59:52;4.60;;;4.10;;
9976;SDS011;5029;47.378;11.776;2022-07-15T11:10:23;4.20;;;3.80;;
9976;SDS011;5029;47.378;11.776;2022-07-15T11:15:27;5.78;;;3.90;;
9976;SDS011;5029;47.378;11.776;2022-07-15T11:20:34;5.10;;;4.07;;
9976;SDS011;5029;47.378;11.776;2022-07-15T11:25:40;5.70;;;4.33;;
9976;SDS011;5029;47.378;11.776;2022-07-15T11:30:44;4.70;;;4.30;;
9976;SDS011;5029;47.378;11.776;2022-07-15T11:35:53;4.30;;;3.90;;
9976;SDS011;5029;47.378;11.776;2022-07-15T11:40:58;4.65;;;4.25;;
9976;SDS011;5029;47.378;11.776;2022-07-15T11:46:42;4.40;;;3.95;;
9976;SDS011;5029;47.378;11.776;2022-07-15T11:51:47;4.80;;;4.40;;
9976;SDS011;5029;47.378;11.776;2022-07-15T11:56:52;4.18;;;3.83;;
9976;SDS011;5029;47.378;11.776;2022-07-15T12:01:59;6.28;;;5.10;;
9976;SDS011;5029;47.378;11.776;2022-07-15T12:07:05;4.97;;;4.57;;
9976;SDS011;5029;47.378;11.776;2022-07-15T12:12:08;5.90;;;3.72;;
9976;SDS011;5029;47.378;11.776;2022-07-15T12:17:12;4.75;;;4.30;;
9976;SDS011;5029;47.378;11.776;2022-07-15T12:22:17;5.28;;;4.78;;
9976;SDS011;5029;47.378;11.776;2022-07-15T12:27:31;5.13;;;4.63;;
9976;SDS011;5029;47.378;11.776;2022-07-15T12:32:35;4.97;;;4.20;;
9976;SDS011;5029;47.378;11.776;2022-07-15T12:37:49;5.07;;;4.60;;
9976;SDS011;5029;47.378;11.776;2022-07-15T12:42:53;5.32;;;4.18;;
9976;SDS011;5029;47.378;11.776;2022-07-15T12:47:59;4.60;;;4.07;;
9976;SDS011;5029;47.378;11.776;2022-07-15T12:53:06;4.38;;;3.92;;
9976;SDS011;5029;47.378;11.776;2022-07-15T12:58:09;4.43;;;4.10;;
9976;SDS011;5029;47.378;11.776;2022-07-15T13:03:15;3.88;;;3.58;;
9976;SDS011;5029;47.378;11.776;2022-07-15T13:08:28;4.15;;;3.75;;
9976;SDS011;5029;47.378;11.776;2022-07-15T13:13:34;4.85;;;4.30;;
9976;SDS011;5029;47.378;11.776;2022-07-15T13:18:38;5.88;;;4.57;;
9976;SDS011;5029;47.378;11.776;2022-07-15T13:23:43;5.03;;;3.88;;
9976;SDS011;5029;47.378;11.776;2022-07-15T13:28:46;4.57;;;4.20;;
9976;SDS011;5029;47.378;11.776;2022-07-15T13:33:50;5.25;;;4.70;;
9976;SDS011;5029;47.378;11.776;2022-07-15T13:38:57;6.07;;;4.57;;
9976;SDS011;5029;47.378;11.776;2022-07-15T13:44:00;6.45;;;4.22;;
9976;SDS011;5029;47.378;11.776;2022-07-15T13:49:04;5.38;;;4.88;;
9976;SDS011;5029;47.378;11.776;2022-07-15T13:54:09;4.60;;;4.20;;
9976;SDS011;5029;47.378;11.776;2022-07-15T13:59:12;6.05;;;4.53;;
9976;SDS011;5029;47.378;11.776;2022-07-15T14:04:15;5.65;;;4.18;;
9976;SDS011;5029;47.378;11.776;2022-07-15T14:09:22;4.40;;;4.10;;
9976;SDS011;5029;47.378;11.776;2022-07-15T14:14:46;6.88;;;4.35;;
9976;SDS011;5029;47.378;11.776;2022-07-15T14:19:49;4.40;;;4.10;;
9976;SDS011;5029;47.378;11.776;2022-07-15T14:24:54;5.28;;;4.72;;
9976;SDS011;5029;47.378;11.776;2022-07-15T14:29:57;4.63;;;4.22;;
9976;SDS011;5029;47.378;11.776;2022-07-15T14:35:09;4.97;;;4.47;;
9976;SDS011;5029;47.378;11.776;2022-07-15T14:40:14;5.22;;;4.60;;
9976;SDS011;5029;47.378;11.776;2022-07-15T14:45:17;5.78;;;4.43;;
9976;SDS011;5029;47.378;11.776;2022-07-15T14:50:21;4.90;;;4.50;;
9976;SDS011;5029;47.378;11.776;2022-07-15T14:55:26;5.60;;;4.63;;
9976;SDS011;5029;47.378;11.776;2022-07-15T15:00:33;7.60;;;4.55;;
9976;SDS011;5029;47.378;11.776;2022-07-15T15:05:37;4.80;;;4.40;;
9976;SDS011;5029;47.378;11.776;2022-07-15T15:10:42;5.70;;;4.60;;
9976;SDS011;5029;47.378;11.776;2022-07-15T15:15:45;4.68;;;4.25;;
9976;SDS011;5029;47.378;11.776;2022-07-15T15:20:49;5.20;;;4.70;;
9976;SDS011;5029;47.378;11.776;2022-07-15T15:25:53;5.45;;;4.28;;
9976;SDS011;5029;47.378;11.776;2022-07-15T15:31:14;4.93;;;4.53;;
9976;SDS011;5029;47.378;11.776;2022-07-15T15:36:18;4.90;;;4.50;;
9976;SDS011;5029;47.378;11.776;2022-07-15T15:41:40;6.55;;;4.40;;
9976;SDS011;5029;47.378;11.776;2022-07-15T15:46:44;7.10;;;5.00;;
9976;SDS011;5029;47.378;11.776;2022-07-15T15:51:47;6.28;;;4.63;;
9976;SDS011;5029;47.378;11.776;2022-07-15T15:56:52;4.80;;;4.28;;
9976;SDS011;5029;47.378;11.776;2022-07-15T16:01:56;5.30;;;4.80;;
9976;SDS011;5029;47.378;11.776;2022-07-15T16:06:59;6.37;;;4.73;;
9976;SDS011;5029;47.378;11.776;2022-07-15T16:12:04;5.65;;;4.95;;
9976;SDS011;5029;47.378;11.776;2022-07-15T16:17:08;5.43;;;4.90;;
9976;SDS011;5029;47.378;11.776;2022-07-15T16:22:14;7.93;;;4.97;;
9976;SDS011;5029;47.378;11.776;2022-07-15T16:27:36;5.20;;;4.40;;
9976;SDS011;5029;47.378;11.776;2022-07-15T16:32:40;5.15;;;4.60;;
9976;SDS011;5029;47.378;11.776;2022-07-15T16:37:43;4.97;;;4.50;;
9976;SDS011;5029;47.378;11.776;2022-07-15T16:42:48;9.15;;;4.45;;
9976;SDS011;5029;47.378;11.776;2022-07-15T16:47:52;5.72;;;4.43;;
9976;SDS011;5029;47.378;11.776;2022-07-15T16:52:56;6.25;;;4.30;;
9976;SDS011;5029;47.378;11.776;2022-07-15T16:58:00;5.95;;;4.53;;
9976;SDS011;5029;47.378;11.776;2022-07-15T17:03:04;5.30;;;4.10;;
9976;SDS011;5029;47.378;11.776;2022-07-15T17:08:07;5.40;;;4.18;;
9976;SDS011;5029;47.378;11.776;2022-07-15T17:13:12;6.20;;;4.88;;
9976;SDS011;5029;47.378;11.776;2022-07-15T17:18:18;5.90;;;4.25;;
9976;SDS011;5029;47.378;11.776;2022-07-15T17:23:21;4.80;;;4.35;;
9976;SDS011;5029;47.378;11.776;2022-07-15T17:28:26;9.10;;;4.60;;
9976;SDS011;5029;47.378;11.776;2022-07-15T17:33:30;5.00;;;4.50;;
9976;SDS011;5029;47.378;11.776;2022-07-15T17:38:33;4.78;;;4.30;;
9976;SDS011;5029;47.378;11.776;2022-07-15T17:43:38;5.30;;;4.57;;
9976;SDS011;5029;47.378;11.776;2022-07-15T17:48:43;4.40;;;4.00;;
9976;SDS011;5029;47.378;11.776;2022-07-15T17:53:46;4.97;;;4.43;;
9976;SDS011;5029;47.378;11.776;2022-07-15T17:58:51;7.37;;;4.07;;
9976;SDS011;5029;47.378;11.776;2022-07-15T18:03:54;5.00;;;4.07;;
9976;SDS011;5029;47.378;11.776;2022-07-15T18:08:58;4.80;;;4.37;;
9976;SDS011;5029;47.378;11.776;2022-07-15T18:14:03;6.80;;;4.70;;
9976;SDS011;5029;47.378;11.776;2022-07-15T18:19:07;6.40;;;4.20;;
9976;SDS011;5029;47.378;11.776;2022-07-15T18:24:22;12.20;;;5.80;;
9976;SDS011;5029;47.378;11.776;2022-07-15T18:29:27;5.57;;;4.50;;
9976;SDS011;5029;47.378;11.776;2022-07-15T18:34:30;7.77;;;4.63;;
9976;SDS011;5029;47.378;11.776;2022-07-15T18:39:34;4.83;;;4.30;;
9976;SDS011;5029;47.378;11.776;2022-07-15T18:44:39;7.10;;;4.33;;
9976;SDS011;5029;47.378;11.776;2022-07-15T18:49:42;5.50;;;4.17;;
9976;SDS011;5029;47.378;11.776;2022-07-15T18:54:46;7.10;;;4.33;;
9976;SDS011;5029;47.378;11.776;2022-07-15T18:59:51;4.97;;;4.40;;
9976;SDS011;5029;47.378;11.776;2022-07-15T19:04:54;6.43;;;4.20;;
9976;SDS011;5029;47.378;11.776;2022-07-15T19:09:58;4.43;;;4.03;;
9976;SDS011;5029;47.378;11.776;2022-07-15T19:15:03;4.60;;;4.20;;
9976;SDS011;5029;47.378;11.776;2022-07-15T19:20:07;4.87;;;4.30;;
9976;SDS011;5029;47.378;11.776;2022-07-15T19:25:13;5.27;;;4.70;;
9976;SDS011;5029;47.378;11.776;2022-07-15T19:30:18;5.83;;;4.20;;
9976;SDS011;5029;47.378;11.776;2022-07-15T19:35:21;6.20;;;4.37;;
9976;SDS011;5029;47.378;11.776;2022-07-15T19:40:27;5.17;;;4.47;;
9976;SDS011;5029;47.378;11.776;2022-07-15T19:45:32;4.90;;;4.40;;
9976;SDS011;5029;47.378;11.776;2022-07-15T19:50:36;4.80;;;3.77;;
9976;SDS011;5029;47.378;11.776;2022-07-15T19:55:42;5.53;;;4.30;;
9976;SDS011;5029;47.378;11.776;2022-07-15T20:00:48;5.40;;;4.23;;
9976;SDS011;5029;47.378;11.776;2022-07-15T20:05:53;4.97;;;4.30;;
9976;SDS011;5029;47.378;11.776;2022-07-15T20:10:57;4.40;;;4.00;;
9976;SDS011;5029;47.378;11.776;2022-07-15T20:16:01;6.00;;;4.27;;
9976;SDS011;5029;47.378;11.776;2022-07-15T20:21:06;6.30;;;4.37;;
9976;SDS011;5029;47.378;11.776;2022-07-15T20:26:09;6.47;;;4.40;;
9976;SDS011;5029;47.378;11.776;2022-07-15T20:31:14;5.03;;;4.17;;
9976;SDS011;5029;47.378;11.776;2022-07-15T20:36:46;6.43;;;3.93;;
9976;SDS011;5029;47.378;11.776;2022-07-15T20:41:50;4.80;;;4.23;;
9976;SDS011;5029;47.378;11.776;2022-07-15T20:46:55;4.57;;;4.17;;
9976;SDS011;5029;47.378;11.776;2022-07-15T20:52:02;4.43;;;3.90;;
9976;SDS011;5029;47.378;11.776;2022-07-15T20:57:05;5.03;;;3.90;;
9976;SDS011;5029;47.378;11.776;2022-07-15T21:02:11;4.97;;;4.23;;
9976;SDS011;5029;47.378;11.776;2022-07-15T21:07:15;6.23;;;4.33;;
9976;SDS011;5029;47.378;11.776;2022-07-15T21:12:19;5.40;;;4.30;;
9976;SDS011;5029;47.378;11.776;2022-07-15T21:17:24;8.03;;;4.03;;
9976;SDS011;5029;47.378;11.776;2022-07-15T21:22:27;8.80;;;4.30;;
9976;SDS011;5029;47.378;11.776;2022-07-15T21:27:31;5.57;;;3.97;;
9976;SDS011;5029;47.378;11.776;2022-07-15T21:32:36;4.83;;;4.33;;
9976;SDS011;5029;47.378;11.776;2022-07-15T21:37:40;8.53;;;4.40;;
9976;SDS011;5029;47.378;11.776;2022-07-15T21:42:43;5.77;;;4.60;;
9976;SDS011;5029;47.378;11.776;2022-07-15T21:47:49;7.40;;;4.53;;
9976;SDS011;5029;47.378;11.776;2022-07-15T21:52:53;8.10;;;4.27;;
9976;SDS011;5029;47.378;11.776;2022-07-15T21:57:57;5.17;;;4.77;;
9976;SDS011;5029;47.378;11.776;2022-07-15T22:03:02;7.43;;;4.60;;
9976;SDS011;5029;47.378;11.776;2022-07-15T22:08:07;7.27;;;4.67;;
9976;SDS011;5029;47.378;11.776;2022-07-15T22:13:12;4.80;;;4.40;;
9976;SDS011;5029;47.378;11.776;2022-07-15T22:18:17;4.70;;;4.30;;
9976;SDS011;5029;47.378;11.776;2022-07-15T22:23:21;5.20;;;4.70;;
9976;SDS011;5029;47.378;11.776;2022-07-15T22:28:25;5.03;;;4.43;;
9976;SDS011;5029;47.378;11.776;2022-07-15T22:33:30;6.70;;;4.20;;
9976;SDS011;5029;47.378;11.776;2022-07-15T22:38:33;4.53;;;4.13;;
9976;SDS011;5029;47.378;11.776;2022-07-15T22:43:37;4.50;;;4.10;;
9976;SDS011;5029;47.378;11.776;2022-07-15T22:48:42;5.70;;;4.50;;
9976;SDS011;5029;47.378;11.776;2022-07-15T22:53:46;5.13;;;4.50;;
9976;SDS011;5029;47.378;11.776;2022-07-15T22:58:49;6.63;;;4.37;;
9976;SDS011;5029;47.378;11.776;2022-07-15T23:03:54;5.63;;;4.20;;
9976;SDS011;5029;47.378;11.776;2022-07-15T23:08:58;5.23;;;4.23;;
9976;SDS011;5029;47.378;11.776;2022-07-15T23:14:01;7.87;;;4.23;;
9976;SDS011;5029;47.378;11.776;2022-07-15T23:19:06;6.00;;;4.20;;
9976;SDS011;5029;47.378;11.776;2022-07-15T23:24:10;6.07;;;4.90;;
9976;SDS011;5029;47.378;11.776;2022-07-15T23:29:13;8.30;;;4.70;;
9976;SDS011;5029;47.378;11.776;2022-07-15T23:34:18;5.17;;;4.67;;
9976;SDS011;5029;47.378;11.776;2022-07-15T23:39:22;6.00;;;5.10;;
9976;SDS011;5029;47.378;11.776;2022-07-15T23:44:25;5.00;;;4.60;;
9976;SDS011;5029;47.378;11.776;2022-07-15T23:49:30;5.63;;;4.70;;
9976;SDS011;5029;47.378;11.776;2022-07-15T23:54:33;5.33;;;4.70;;
9976;SDS011;5029;47.378;11.776;2022-07-15T23:59:37;6.93;;;4.70;;
